createdAt,value
2022-12-31T00:01:32.828Z,89.22
2022-12-31T00:04:00.812Z,88.99
2022-12-31T00:06:31.436Z,89.49
2022-12-31T00:09:01.515Z,88.85
2022-12-31T00:11:30.952Z,88.60
2022-12-31T00:13:59.437Z,88.56
2022-12-31T00:16:30.044Z,88.65
2022-12-31T00:19:00.151Z,88.34
2022-12-31T00:21:31.453Z,88.59
2022-12-31T00:24:00.053Z,88.71
2022-12-31T00:26:31.252Z,89.08
2022-12-31T00:29:00.408Z,89.12
2022-12-31T00:31:34.328Z,89.50
2022-12-31T00:34:02.944Z,89.43
2022-12-31T00:36:34.994Z,89.38
2022-12-31T00:39:04.799Z,89.24
2022-12-31T00:41:32.872Z,89.45
2022-12-31T00:44:01.179Z,89.53
2022-12-31T00:46:29.398Z,89.46
2022-12-31T00:48:57.676Z,89.24
2022-12-31T00:51:27.884Z,89.36
2022-12-31T00:53:56.998Z,89.68
2022-12-31T00:56:27.547Z,89.95
2022-12-31T00:58:55.921Z,89.90
2022-12-31T01:01:27.232Z,90.06
2022-12-31T01:04:07.344Z,90.15
2022-12-31T01:06:35.871Z,89.88
2022-12-31T01:09:05.191Z,89.88
2022-12-31T01:11:33.646Z,89.70
2022-12-31T01:14:13.965Z,90.01
2022-12-31T01:16:45.923Z,89.82
2022-12-31T01:19:16.938Z,89.80
2022-12-31T01:21:46.003Z,89.60
2022-12-31T01:24:14.205Z,89.53
2022-12-31T01:26:42.848Z,89.45
2022-12-31T01:29:13.570Z,88.99
2022-12-31T01:31:41.928Z,89.13
2022-12-31T01:34:10.239Z,89.30
2022-12-31T01:37:07.923Z,89.06
2022-12-31T01:39:35.886Z,88.76
2022-12-31T01:42:03.950Z,88.69
2022-12-31T01:44:31.862Z,88.34
2022-12-31T01:47:04.243Z,88.44
2022-12-31T01:49:41.829Z,89.01
2022-12-31T01:52:22.806Z,88.74
2022-12-31T01:54:58.260Z,88.60
2022-12-31T01:57:27.501Z,88.48
2022-12-31T01:59:56.900Z,89.17
2022-12-31T02:02:25.104Z,89.53
2022-12-31T02:04:55.891Z,88.90
2022-12-31T02:07:23.929Z,89.14
2022-12-31T02:09:54.265Z,89.18
2022-12-31T02:12:23.061Z,89.40
2022-12-31T02:14:53.880Z,89.33
2022-12-31T02:17:51.935Z,89.39
2022-12-31T02:20:51.601Z,89.40
2022-12-31T02:23:22.782Z,89.60
2022-12-31T02:26:15.536Z,89.54
2022-12-31T02:28:52.533Z,90.02
2022-12-31T02:31:32.821Z,89.87
2022-12-31T02:34:13.875Z,89.68
2022-12-31T02:36:47.384Z,89.36
2022-12-31T02:39:15.959Z,89.27
2022-12-31T02:41:51.450Z,89.64
2022-12-31T02:44:30.426Z,89.72
2022-12-31T02:47:21.121Z,89.74
2022-12-31T02:50:23.171Z,89.87
2022-12-31T02:53:09.730Z,89.81
2022-12-31T02:55:53.307Z,89.78
2022-12-31T02:58:52.627Z,89.73
2022-12-31T03:01:45.719Z,89.86
2022-12-31T03:04:33.357Z,90.13
2022-12-31T03:07:08.854Z,89.89
2022-12-31T03:09:37.607Z,89.94
2022-12-31T03:12:26.578Z,89.89
2022-12-31T03:14:54.548Z,89.75
2022-12-31T03:17:22.991Z,90.19
2022-12-31T03:21:05.612Z,89.97
2022-12-31T03:23:38.137Z,89.79
2022-12-31T03:26:12.522Z,90.07
2022-12-31T03:28:43.551Z,90.08
2022-12-31T03:31:11.640Z,89.99
2022-12-31T03:33:41.895Z,90.30
2022-12-31T03:36:12.856Z,90.66
2022-12-31T03:38:41.129Z,90.99
2022-12-31T03:41:11.445Z,90.78
2022-12-31T03:43:39.450Z,91.04
2022-12-31T03:46:07.425Z,90.60
2022-12-31T03:48:35.361Z,90.65
2022-12-31T03:51:06.150Z,90.80
2022-12-31T03:53:35.771Z,90.97
2022-12-31T03:56:04.065Z,91.54
2022-12-31T03:58:32.045Z,91.33
2022-12-31T04:01:00.035Z,91.13
2022-12-31T04:03:28.826Z,91.60
2022-12-31T04:05:57.127Z,91.54
2022-12-31T04:08:25.519Z,91.59
2022-12-31T04:10:53.573Z,91.57
2022-12-31T04:13:21.747Z,91.53
2022-12-31T04:15:52.054Z,91.47
2022-12-31T04:18:20.025Z,91.50
2022-12-31T04:20:47.978Z,91.33
2022-12-31T04:23:17.092Z,91.28
2022-12-31T04:25:45.052Z,91.09
2022-12-31T04:28:15.136Z,91.60
2022-12-31T04:30:44.080Z,91.37
2022-12-31T04:33:12.092Z,91.29
2022-12-31T04:35:40.063Z,91.31
2022-12-31T04:38:08.017Z,91.44
2022-12-31T04:40:55.934Z,91.40
2022-12-31T04:43:24.760Z,91.58
2022-12-31T04:45:52.763Z,91.54
2022-12-31T04:52:51.016Z,92.51
2022-12-31T04:55:18.983Z,92.70
2022-12-31T04:57:46.919Z,92.19
2022-12-31T05:00:15.207Z,92.27
2022-12-31T05:02:43.348Z,92.42
2022-12-31T05:05:11.450Z,92.30
2022-12-31T05:07:39.448Z,92.08
2022-12-31T05:10:07.979Z,92.20
2022-12-31T05:12:35.982Z,92.06
2022-12-31T05:15:04.263Z,92.18
2022-12-31T05:17:32.214Z,92.02
2022-12-31T05:20:00.303Z,91.87
2022-12-31T05:22:33.087Z,92.26
2022-12-31T05:25:01.466Z,92.23
2022-12-31T05:27:31.420Z,91.63
2022-12-31T05:30:00.052Z,91.80
2022-12-31T05:32:28.251Z,92.12
2022-12-31T05:34:58.152Z,92.22
2022-12-31T05:37:29.235Z,92.51
2022-12-31T05:40:01.105Z,92.40
2022-12-31T05:42:29.096Z,92.38
2022-12-31T05:44:57.130Z,92.34
2022-12-31T05:47:25.571Z,92.34
2022-12-31T05:49:53.633Z,92.23
2022-12-31T05:52:21.728Z,92.32
2022-12-31T05:54:49.757Z,92.37
2022-12-31T05:57:17.731Z,92.43
2022-12-31T05:59:45.709Z,92.31
2022-12-31T06:02:13.889Z,92.09
2022-12-31T06:05:10.237Z,92.39
2022-12-31T06:07:38.261Z,92.31
2022-12-31T06:10:07.124Z,92.42
2022-12-31T06:12:35.738Z,92.38
2022-12-31T06:15:04.373Z,92.85
2022-12-31T06:17:34.403Z,92.79
2022-12-31T06:20:05.997Z,92.55
2022-12-31T06:22:36.899Z,92.58
2022-12-31T06:25:05.316Z,92.55
2022-12-31T06:27:33.743Z,92.66
2022-12-31T06:30:01.736Z,92.82
2022-12-31T06:32:29.677Z,92.84
2022-12-31T06:34:57.593Z,92.80
2022-12-31T06:37:31.034Z,92.90
2022-12-31T06:40:01.131Z,92.96
2022-12-31T06:42:31.033Z,92.93
2022-12-31T06:44:59.733Z,93.04
2022-12-31T06:47:27.711Z,92.97
2022-12-31T06:49:55.933Z,93.12
2022-12-31T06:52:23.979Z,93.14
2022-12-31T06:55:17.115Z,93.14
2022-12-31T06:57:45.339Z,92.81
2022-12-31T07:00:14.619Z,92.84
2022-12-31T07:02:59.415Z,92.87
2022-12-31T07:05:36.490Z,92.88
2022-12-31T07:08:29.607Z,92.85
2022-12-31T07:11:52.928Z,92.98
2022-12-31T07:14:57.812Z,93.09
2022-12-31T07:17:50.579Z,93.07
2022-12-31T07:20:19.822Z,93.06
2022-12-31T07:22:48.314Z,93.06
2022-12-31T07:26:11.869Z,93.01
2022-12-31T07:28:57.798Z,93.33
2022-12-31T07:31:28.788Z,93.24
2022-12-31T07:34:12.472Z,93.23
2022-12-31T07:37:04.957Z,93.21
2022-12-31T07:39:41.838Z,93.01
2022-12-31T07:42:33.182Z,93.29
2022-12-31T07:45:34.945Z,93.23
2022-12-31T07:48:03.335Z,93.00
2022-12-31T07:54:49.844Z,93.13
2022-12-31T07:57:20.580Z,92.93
2022-12-31T08:00:19.217Z,93.26
2022-12-31T08:03:03.083Z,93.44
2022-12-31T08:05:50.577Z,93.07
2022-12-31T08:08:33.261Z,93.18
2022-12-31T08:11:15.874Z,93.00
2022-12-31T08:13:44.275Z,92.92
2022-12-31T08:16:14.757Z,92.91
2022-12-31T08:18:42.992Z,92.80
2022-12-31T08:21:14.403Z,92.94
2022-12-31T08:24:23.021Z,92.51
2022-12-31T08:27:34.283Z,92.66
2022-12-31T08:30:13.480Z,92.49
2022-12-31T08:33:13.028Z,92.41
2022-12-31T08:36:32.920Z,92.59
2022-12-31T08:39:42.363Z,92.30
2022-12-31T08:42:33.344Z,92.32
2022-12-31T08:45:28.735Z,92.15
2022-12-31T08:48:03.156Z,91.80
2022-12-31T08:50:31.451Z,91.91
2022-12-31T08:53:00.156Z,91.70
2022-12-31T08:55:33.475Z,91.84
2022-12-31T08:58:22.638Z,91.99
2022-12-31T09:00:56.997Z,91.18
2022-12-31T09:03:49.657Z,91.01
2022-12-31T09:06:27.266Z,90.82
2022-12-31T09:09:07.338Z,90.64
2022-12-31T09:12:04.942Z,89.94
2022-12-31T09:14:50.126Z,90.54
2022-12-31T09:17:37.129Z,90.50
2022-12-31T09:20:42.807Z,90.69
2022-12-31T09:23:13.420Z,90.62
2022-12-31T09:26:16.009Z,90.84
2022-12-31T09:29:02.830Z,91.09
2022-12-31T09:31:49.540Z,90.91
2022-12-31T09:34:30.758Z,91.24
2022-12-31T09:37:29.581Z,90.60
2022-12-31T09:40:05.439Z,90.70
2022-12-31T09:43:02.514Z,90.41
2022-12-31T09:45:40.186Z,90.12
2022-12-31T09:48:26.339Z,89.31
2022-12-31T09:51:09.597Z,88.85
2022-12-31T09:54:14.134Z,88.58
2022-12-31T09:57:15.316Z,88.82
2022-12-31T09:59:49.324Z,88.19
2022-12-31T10:02:39.402Z,87.60
2022-12-31T10:05:51.471Z,86.50
2022-12-31T10:08:33.845Z,86.54
2022-12-31T10:11:35.990Z,86.07
2022-12-31T10:14:28.309Z,85.58
2022-12-31T10:17:18.217Z,85.11
2022-12-31T10:19:46.353Z,85.18
2022-12-31T10:22:51.808Z,85.10
2022-12-31T10:28:29.846Z,84.80
2022-12-31T10:31:13.186Z,84.79
2022-12-31T10:34:05.608Z,84.98
2022-12-31T10:37:11.208Z,84.62
2022-12-31T10:39:55.209Z,83.85
2022-12-31T10:43:01.507Z,83.93
2022-12-31T10:45:29.508Z,84.21
2022-12-31T10:52:41.693Z,83.56
2022-12-31T10:55:47.513Z,83.48
2022-12-31T10:58:27.850Z,84.03
2022-12-31T11:00:58.801Z,84.03
2022-12-31T11:04:46.770Z,83.81
2022-12-31T11:07:26.398Z,83.81
2022-12-31T11:10:27.500Z,83.94
2022-12-31T11:13:29.462Z,83.91
2022-12-31T11:16:36.220Z,83.65
2022-12-31T11:19:27.085Z,83.34
2022-12-31T11:22:20.427Z,83.40
2022-12-31T11:25:11.456Z,83.63
2022-12-31T11:28:15.257Z,83.57
2022-12-31T11:31:03.670Z,83.42
2022-12-31T11:33:50.274Z,82.94
2022-12-31T11:36:33.841Z,83.62
2022-12-31T11:39:27.310Z,83.67
2022-12-31T11:42:51.927Z,83.84
2022-12-31T11:45:31.433Z,83.62
2022-12-31T11:48:31.318Z,82.71
2022-12-31T11:51:12.168Z,82.96
2022-12-31T11:53:49.021Z,82.61
2022-12-31T11:56:23.174Z,82.56
2022-12-31T11:58:54.952Z,82.49
2022-12-31T12:01:41.811Z,81.22
2022-12-31T12:04:11.353Z,80.23
2022-12-31T12:06:40.626Z,80.06
2022-12-31T12:09:27.818Z,77.04
2022-12-31T12:12:03.322Z,76.61
2022-12-31T12:14:37.170Z,74.61
2022-12-31T12:17:57.885Z,74.97
2022-12-31T12:20:38.470Z,73.84
2022-12-31T12:23:35.915Z,73.44
2022-12-31T12:26:07.243Z,73.30
2022-12-31T12:28:46.254Z,73.34
2022-12-31T12:31:22.659Z,73.35
2022-12-31T12:33:52.337Z,74.28
2022-12-31T12:36:22.127Z,74.59
2022-12-31T12:39:06.842Z,74.77
2022-12-31T12:41:34.978Z,74.83
2022-12-31T12:44:08.934Z,75.46
2022-12-31T12:46:48.487Z,75.21
2022-12-31T12:49:24.202Z,75.71
2022-12-31T12:52:38.741Z,76.27
2022-12-31T12:55:14.217Z,76.21
2022-12-31T12:58:04.048Z,75.90
2022-12-31T13:00:37.920Z,76.15
2022-12-31T13:03:27.813Z,76.61
2022-12-31T13:06:34.629Z,76.88
2022-12-31T13:09:35.626Z,77.31
2022-12-31T13:12:25.983Z,77.11
2022-12-31T13:15:18.851Z,76.75
2022-12-31T13:17:51.448Z,76.63
2022-12-31T13:20:34.707Z,77.04
2022-12-31T13:23:18.244Z,77.42
2022-12-31T13:26:01.442Z,77.53
2022-12-31T13:28:31.890Z,77.37
2022-12-31T13:31:06.959Z,77.13
2022-12-31T13:33:48.014Z,77.19
2022-12-31T13:36:23.834Z,77.40
2022-12-31T13:38:54.531Z,77.55
2022-12-31T13:41:49.719Z,77.94
2022-12-31T13:44:33.636Z,77.93
2022-12-31T13:47:27.627Z,77.73
2022-12-31T13:50:08.353Z,77.81
2022-12-31T13:52:56.026Z,77.68
2022-12-31T13:55:29.991Z,77.99
2022-12-31T13:58:16.377Z,78.28
2022-12-31T14:00:58.736Z,78.33
2022-12-31T14:04:04.079Z,78.40
2022-12-31T14:07:10.496Z,78.14
2022-12-31T14:09:38.610Z,77.37
2022-12-31T14:12:18.042Z,77.73
2022-12-31T14:15:38.651Z,77.72
2022-12-31T14:18:18.697Z,78.09
2022-12-31T14:20:58.645Z,77.92
2022-12-31T14:23:39.618Z,77.93
2022-12-31T14:26:26.086Z,78.01
2022-12-31T14:29:12.470Z,77.98
2022-12-31T14:31:49.402Z,78.28
2022-12-31T14:34:40.517Z,78.56
2022-12-31T14:41:56.024Z,78.29
2022-12-31T14:44:44.427Z,78.38
2022-12-31T14:51:50.235Z,79.18
2022-12-31T14:54:34.573Z,78.99
2022-12-31T15:03:05.818Z,79.01
2022-12-31T15:05:36.708Z,79.48
2022-12-31T15:08:26.637Z,79.45
2022-12-31T15:11:16.200Z,79.47
2022-12-31T15:14:14.633Z,79.51
2022-12-31T15:17:04.639Z,79.65
2022-12-31T15:20:03.660Z,80.13
2022-12-31T15:22:45.299Z,80.25
2022-12-31T15:25:25.791Z,80.10
2022-12-31T15:27:55.397Z,80.25
2022-12-31T15:30:32.617Z,80.32
2022-12-31T15:33:04.786Z,80.62
2022-12-31T15:35:46.417Z,80.32
2022-12-31T15:38:14.380Z,80.43
2022-12-31T15:40:45.712Z,80.36
2022-12-31T15:43:25.983Z,80.46
2022-12-31T15:45:56.068Z,81.04
2022-12-31T15:48:37.724Z,80.68
2022-12-31T15:51:09.680Z,80.50
2022-12-31T15:53:44.180Z,80.55
2022-12-31T15:56:19.876Z,80.70
2022-12-31T15:58:53.926Z,80.80
2022-12-31T16:01:36.364Z,80.92
2022-12-31T16:04:14.630Z,80.84
2022-12-31T16:06:48.905Z,80.90
2022-12-31T16:09:30.732Z,80.96
2022-12-31T16:12:00.224Z,81.13
2022-12-31T16:14:43.792Z,80.99
2022-12-31T16:17:36.339Z,81.03
2022-12-31T16:20:25.967Z,81.12
2022-12-31T16:22:57.617Z,81.20
2022-12-31T16:25:31.108Z,81.36
2022-12-31T16:28:02.143Z,81.40
2022-12-31T16:30:36.070Z,81.51
2022-12-31T16:33:07.083Z,81.47
2022-12-31T16:35:37.339Z,81.48
2022-12-31T16:38:08.301Z,81.55
2022-12-31T16:40:36.293Z,81.62
2022-12-31T16:43:04.515Z,81.67
2022-12-31T16:45:36.706Z,81.66
2022-12-31T16:48:19.125Z,81.73
2022-12-31T16:50:53.836Z,81.85
2022-12-31T16:53:27.236Z,81.83
2022-12-31T16:56:04.910Z,81.82
2022-12-31T16:58:36.033Z,82.07
2022-12-31T17:01:18.436Z,82.07
2022-12-31T17:03:51.489Z,82.56
2022-12-31T17:06:21.648Z,82.44
2022-12-31T17:08:55.826Z,82.41
2022-12-31T17:11:39.386Z,82.49
2022-12-31T17:14:07.813Z,82.62
2022-12-31T17:16:37.964Z,82.66
2022-12-31T17:19:06.395Z,82.93
2022-12-31T17:21:34.455Z,82.85
2022-12-31T17:24:07.009Z,82.85
2022-12-31T17:26:37.962Z,82.97
2022-12-31T17:29:08.042Z,82.82
2022-12-31T17:31:38.455Z,83.04
2022-12-31T17:34:12.440Z,83.16
2022-12-31T17:36:52.214Z,83.19
2022-12-31T17:39:23.127Z,83.34
2022-12-31T17:41:53.177Z,83.28
2022-12-31T17:44:23.782Z,83.18
2022-12-31T17:46:52.981Z,83.58
2022-12-31T17:49:30.512Z,83.96
2022-12-31T17:51:58.783Z,84.17
2022-12-31T17:54:26.717Z,84.01
2022-12-31T17:56:54.796Z,84.24
2022-12-31T17:59:25.820Z,84.25
2022-12-31T18:02:02.744Z,83.96
2022-12-31T18:04:30.826Z,83.88
2022-12-31T18:06:58.783Z,84.11
2022-12-31T18:09:26.830Z,84.02
2022-12-31T18:11:58.289Z,83.88
2022-12-31T18:14:29.650Z,83.61
2022-12-31T18:16:58.518Z,83.42
2022-12-31T18:22:16.658Z,83.31
2022-12-31T18:24:44.845Z,83.34
2022-12-31T18:27:17.616Z,83.44
2022-12-31T18:29:46.193Z,83.60
2022-12-31T18:32:26.255Z,83.82
2022-12-31T18:34:54.684Z,83.74
2022-12-31T18:37:22.919Z,83.70
2022-12-31T18:39:51.031Z,83.47
2022-12-31T18:42:20.456Z,83.43
2022-12-31T18:44:48.586Z,83.55
2022-12-31T18:47:19.525Z,83.31
2022-12-31T18:49:48.736Z,83.48
2022-12-31T18:52:21.781Z,83.41
2022-12-31T18:54:50.395Z,83.64
2022-12-31T18:57:18.612Z,83.75
2022-12-31T18:59:46.704Z,83.72
2022-12-31T19:02:18.796Z,83.86
2022-12-31T19:04:48.305Z,83.78
2022-12-31T19:07:16.405Z,83.69
2022-12-31T19:09:45.967Z,83.49
2022-12-31T19:12:16.626Z,84.10
2022-12-31T19:14:45.735Z,84.31
2022-12-31T19:17:13.675Z,84.24
2022-12-31T19:19:41.703Z,84.27
2022-12-31T19:22:15.195Z,83.92
2022-12-31T19:24:43.257Z,84.37
2022-12-31T19:27:14.901Z,84.66
2022-12-31T19:29:42.932Z,84.89
2022-12-31T19:36:20.286Z,85.41
2022-12-31T19:38:48.275Z,85.62
2022-12-31T19:41:19.392Z,85.77
2022-12-31T19:43:48.087Z,85.16
2022-12-31T19:46:18.846Z,85.40
2022-12-31T19:48:47.173Z,86.28
2022-12-31T19:51:20.454Z,86.31
2022-12-31T19:53:49.767Z,86.24
2022-12-31T19:56:20.082Z,86.27
2022-12-31T19:58:48.460Z,86.07
2022-12-31T20:01:22.323Z,86.48
2022-12-31T20:03:51.486Z,86.48
2022-12-31T20:06:19.779Z,86.56
2022-12-31T20:08:47.802Z,86.48
2022-12-31T20:11:18.844Z,86.40
2022-12-31T20:13:48.482Z,86.82
2022-12-31T20:16:18.450Z,86.62
2022-12-31T20:18:47.556Z,86.53
2022-12-31T20:21:21.698Z,86.80
2022-12-31T20:23:51.251Z,86.65
2022-12-31T20:26:21.317Z,86.41
2022-12-31T20:28:49.394Z,86.39
2022-12-31T20:31:20.323Z,86.43
2022-12-31T20:33:48.606Z,86.73
2022-12-31T20:36:17.740Z,87.13
2022-12-31T20:38:46.343Z,87.31
2022-12-31T20:41:20.407Z,87.41
2022-12-31T20:43:49.463Z,87.47
2022-12-31T20:46:24.517Z,87.38
2022-12-31T20:48:55.060Z,87.60
2022-12-31T20:51:24.278Z,87.54
2022-12-31T20:53:58.023Z,87.57
2022-12-31T20:56:29.218Z,87.13
2022-12-31T20:58:57.593Z,86.80
2022-12-31T21:01:32.206Z,86.99
2022-12-31T21:04:14.512Z,87.10
2022-12-31T21:06:42.511Z,87.03
2022-12-31T21:09:10.797Z,87.01
2022-12-31T21:11:57.347Z,87.38
2022-12-31T21:14:25.421Z,87.16
2022-12-31T21:16:53.559Z,87.40
2022-12-31T21:19:21.610Z,88.10
2022-12-31T21:21:49.949Z,87.90
2022-12-31T21:24:23.617Z,87.75
2022-12-31T21:26:55.044Z,88.31
2022-12-31T21:29:23.262Z,88.47
2022-12-31T21:31:52.250Z,88.49
2022-12-31T21:34:20.267Z,88.24
2022-12-31T21:36:48.388Z,88.39
2022-12-31T21:39:16.418Z,88.55
2022-12-31T21:41:53.498Z,88.49
2022-12-31T21:44:26.001Z,88.43
2022-12-31T21:47:39.516Z,88.88
2022-12-31T21:50:08.189Z,89.12
2022-12-31T21:52:36.335Z,89.71
2022-12-31T21:55:23.924Z,89.50
2022-12-31T21:58:24.812Z,89.61
2022-12-31T22:00:59.592Z,89.38
2022-12-31T22:03:28.632Z,89.56
2022-12-31T22:06:13.155Z,89.83
2022-12-31T22:08:43.903Z,90.57
2022-12-31T22:11:13.139Z,90.46
2022-12-31T22:13:42.879Z,90.13
2022-12-31T22:16:11.357Z,90.31
2022-12-31T22:18:40.968Z,90.52
2022-12-31T22:21:19.034Z,90.62
2022-12-31T22:23:49.876Z,91.18
2022-12-31T22:26:20.269Z,90.95
2022-12-31T22:28:48.562Z,90.90
2022-12-31T22:31:22.851Z,90.81
2022-12-31T22:33:51.555Z,90.85
2022-12-31T22:36:22.264Z,90.75
2022-12-31T22:38:52.457Z,91.13
2022-12-31T22:41:22.521Z,91.39
2022-12-31T22:44:02.236Z,93.07
2022-12-31T22:46:31.856Z,93.70
2022-12-31T22:49:02.543Z,92.33
2022-12-31T22:51:56.516Z,91.69
2022-12-31T22:54:20.308Z,91.65
2022-12-31T22:56:48.369Z,92.42
2022-12-31T22:59:16.421Z,92.10
2022-12-31T23:01:44.552Z,91.89
2022-12-31T23:04:12.845Z,91.90
2022-12-31T23:06:43.719Z,92.02
2022-12-31T23:09:33.338Z,92.19
2022-12-31T23:12:26.940Z,92.04
2022-12-31T23:15:13.255Z,91.87
2022-12-31T23:17:59.844Z,91.61
2022-12-31T23:20:46.523Z,91.40
2022-12-31T23:23:19.144Z,91.93
2022-12-31T23:25:52.000Z,91.98
2022-12-31T23:28:23.075Z,92.12
2022-12-31T23:30:51.981Z,92.31
2022-12-31T23:33:22.975Z,92.34
2022-12-31T23:35:51.221Z,92.25
2022-12-31T23:38:19.255Z,91.85
2022-12-31T23:40:47.320Z,92.50
2022-12-31T23:43:21.274Z,92.05
2022-12-31T23:45:52.530Z,92.32
2022-12-31T23:48:20.720Z,92.43
2022-12-31T23:50:53.502Z,92.49
2022-12-31T23:53:25.507Z,92.95
2022-12-31T23:55:53.817Z,92.86
2022-12-31T23:58:22.341Z,92.93
